sensor_id;sensor_type;location;lat;lon;timestamp;P1;durP1;ratioP1;P2;durP2;ratioP2
68821;SDS011;55834;50.870;4.606;2023-03-13T00:01:32;6.68;;;2.25;;
68821;SDS011;55834;50.870;4.606;2023-03-13T00:03:58;4.90;;;1.88;;
68821;SDS011;55834;50.870;4.606;2023-03-13T00:06:24;5.30;;;1.40;;
68821;SDS011;55834;50.870;4.606;2023-03-13T00:08:52;8.30;;;2.50;;
68821;SDS011;55834;50.870;4.606;2023-03-13T00:11:18;6.05;;;2.20;;
68821;SDS011;55834;50.870;4.606;2023-03-13T00:13:44;7.90;;;2.03;;
68821;SDS011;55834;50.870;4.606;2023-03-13T00:16:10;7.63;;;1.97;;
68821;SDS011;55834;50.870;4.606;2023-03-13T00:18:38;7.45;;;1.80;;
68821;SDS011;55834;50.870;4.606;2023-03-13T00:21:04;4.03;;;1.37;;
68821;SDS011;55834;50.870;4.606;2023-03-13T00:23:34;7.72;;;2.70;;
68821;SDS011;55834;50.870;4.606;2023-03-13T00:26:05;6.05;;;1.55;;
68821;SDS011;55834;50.870;4.606;2023-03-13T00:28:32;3.90;;;1.67;;
68821;SDS011;55834;50.870;4.606;2023-03-13T00:31:21;9.50;;;2.30;;
68821;SDS011;55834;50.870;4.606;2023-03-13T00:33:47;7.20;;;1.60;;
68821;SDS011;55834;50.870;4.606;2023-03-13T00:36:18;7.68;;;2.15;;
68821;SDS011;55834;50.870;4.606;2023-03-13T00:38:46;4.32;;;1.83;;
68821;SDS011;55834;50.870;4.606;2023-03-13T00:41:12;5.47;;;1.58;;
68821;SDS011;55834;50.870;4.606;2023-03-13T00:43:40;5.50;;;1.85;;
68821;SDS011;55834;50.870;4.606;2023-03-13T00:46:06;7.88;;;2.10;;
68821;SDS011;55834;50.870;4.606;2023-03-13T00:48:32;4.50;;;1.50;;
68821;SDS011;55834;50.870;4.606;2023-03-13T00:50:58;5.32;;;1.83;;
68821;SDS011;55834;50.870;4.606;2023-03-13T00:53:24;3.70;;;1.27;;
68821;SDS011;55834;50.870;4.606;2023-03-13T00:56:00;15.67;;;2.57;;
68821;SDS011;55834;50.870;4.606;2023-03-13T00:58:31;3.17;;;1.48;;
68821;SDS011;55834;50.870;4.606;2023-03-13T01:01:06;6.22;;;0.88;;
68821;SDS011;55834;50.870;4.606;2023-03-13T01:03:36;5.13;;;1.90;;
68821;SDS011;55834;50.870;4.606;2023-03-13T01:06:02;2.20;;;1.10;;
68821;SDS011;55834;50.870;4.606;2023-03-13T01:08:30;4.35;;;1.17;;
68821;SDS011;55834;50.870;4.606;2023-03-13T01:11:06;2.13;;;1.20;;
68821;SDS011;55834;50.870;4.606;2023-03-13T01:13:33;2.80;;;1.30;;
68821;SDS011;55834;50.870;4.606;2023-03-13T01:16:03;3.85;;;1.30;;
68821;SDS011;55834;50.870;4.606;2023-03-13T01:18:29;3.92;;;2.00;;
68821;SDS011;55834;50.870;4.606;2023-03-13T01:20:55;3.05;;;1.55;;
68821;SDS011;55834;50.870;4.606;2023-03-13T01:23:20;3.80;;;1.57;;
68821;SDS011;55834;50.870;4.606;2023-03-13T01:25:46;4.50;;;1.43;;
68821;SDS011;55834;50.870;4.606;2023-03-13T01:28:11;1.65;;;1.33;;
68821;SDS011;55834;50.870;4.606;2023-03-13T01:30:37;2.70;;;1.70;;
68821;SDS011;55834;50.870;4.606;2023-03-13T01:33:02;4.67;;;1.93;;
68821;SDS011;55834;50.870;4.606;2023-03-13T01:35:27;3.45;;;1.55;;
68821;SDS011;55834;50.870;4.606;2023-03-13T01:37:53;3.87;;;1.50;;
68821;SDS011;55834;50.870;4.606;2023-03-13T01:40:18;7.43;;;2.53;;
68821;SDS011;55834;50.870;4.606;2023-03-13T01:42:54;3.78;;;2.20;;
68821;SDS011;55834;50.870;4.606;2023-03-13T01:48:14;3.90;;;2.45;;
68821;SDS011;55834;50.870;4.606;2023-03-13T01:50:39;2.92;;;2.17;;
68821;SDS011;55834;50.870;4.606;2023-03-13T01:53:05;3.25;;;2.35;;
68821;SDS011;55834;50.870;4.606;2023-03-13T01:55:30;2.83;;;2.47;;
68821;SDS011;55834;50.870;4.606;2023-03-13T01:57:57;3.67;;;2.60;;
68821;SDS011;55834;50.870;4.606;2023-03-13T02:00:24;4.38;;;3.03;;
68821;SDS011;55834;50.870;4.606;2023-03-13T02:02:54;5.40;;;2.40;;
68821;SDS011;55834;50.870;4.606;2023-03-13T02:05:23;7.03;;;3.05;;
68821;SDS011;55834;50.870;4.606;2023-03-13T02:07:54;6.57;;;2.75;;
68821;SDS011;55834;50.870;4.606;2023-03-13T02:10:21;4.15;;;2.78;;
68821;SDS011;55834;50.870;4.606;2023-03-13T02:12:48;2.95;;;2.65;;
68821;SDS011;55834;50.870;4.606;2023-03-13T02:15:16;4.45;;;2.30;;
68821;SDS011;55834;50.870;4.606;2023-03-13T02:17:44;6.88;;;2.50;;
68821;SDS011;55834;50.870;4.606;2023-03-13T02:20:12;3.67;;;2.53;;
68821;SDS011;55834;50.870;4.606;2023-03-13T02:22:43;4.20;;;2.10;;
68821;SDS011;55834;50.870;4.606;2023-03-13T02:25:33;2.33;;;2.13;;
68821;SDS011;55834;50.870;4.606;2023-03-13T02:28:00;3.35;;;2.47;;
68821;SDS011;55834;50.870;4.606;2023-03-13T02:30:29;3.03;;;2.35;;
68821;SDS011;55834;50.870;4.606;2023-03-13T02:32:55;4.45;;;2.33;;
68821;SDS011;55834;50.870;4.606;2023-03-13T02:35:21;5.68;;;2.80;;
68821;SDS011;55834;50.870;4.606;2023-03-13T02:37:55;2.33;;;1.95;;
68821;SDS011;55834;50.870;4.606;2023-03-13T02:40:23;5.68;;;2.65;;
68821;SDS011;55834;50.870;4.606;2023-03-13T02:42:55;3.30;;;2.65;;
68821;SDS011;55834;50.870;4.606;2023-03-13T02:45:22;4.00;;;3.22;;
68821;SDS011;55834;50.870;4.606;2023-03-13T02:47:48;3.47;;;2.57;;
68821;SDS011;55834;50.870;4.606;2023-03-13T02:50:13;4.28;;;2.20;;
68821;SDS011;55834;50.870;4.606;2023-03-13T02:52:40;3.80;;;2.80;;
68821;SDS011;55834;50.870;4.606;2023-03-13T02:55:09;2.97;;;2.55;;
68821;SDS011;55834;50.870;4.606;2023-03-13T02:57:41;6.63;;;3.05;;
68821;SDS011;55834;50.870;4.606;2023-03-13T03:00:08;4.45;;;3.22;;
68821;SDS011;55834;50.870;4.606;2023-03-13T03:02:37;4.18;;;2.63;;
68821;SDS011;55834;50.870;4.606;2023-03-13T03:05:03;5.20;;;3.03;;
68821;SDS011;55834;50.870;4.606;2023-03-13T03:07:29;4.75;;;3.00;;
68821;SDS011;55834;50.870;4.606;2023-03-13T03:09:55;5.90;;;3.67;;
68821;SDS011;55834;50.870;4.606;2023-03-13T03:12:20;4.88;;;4.32;;
68821;SDS011;55834;50.870;4.606;2023-03-13T03:14:46;4.03;;;3.40;;
68821;SDS011;55834;50.870;4.606;2023-03-13T03:17:11;4.43;;;3.58;;
68821;SDS011;55834;50.870;4.606;2023-03-13T03:19:37;5.27;;;3.57;;
68821;SDS011;55834;50.870;4.606;2023-03-13T03:22:02;5.70;;;4.03;;
68821;SDS011;55834;50.870;4.606;2023-03-13T03:24:27;4.53;;;3.40;;
68821;SDS011;55834;50.870;4.606;2023-03-13T03:26:53;9.57;;;4.07;;
68821;SDS011;55834;50.870;4.606;2023-03-13T03:29:18;4.28;;;3.80;;
68821;SDS011;55834;50.870;4.606;2023-03-13T03:31:43;4.60;;;4.13;;
68821;SDS011;55834;50.870;4.606;2023-03-13T03:34:09;4.80;;;3.67;;
68821;SDS011;55834;50.870;4.606;2023-03-13T03:36:34;3.70;;;3.33;;
68821;SDS011;55834;50.870;4.606;2023-03-13T03:39:00;3.33;;;3.03;;
68821;SDS011;55834;50.870;4.606;2023-03-13T03:41:25;8.07;;;4.27;;
68821;SDS011;55834;50.870;4.606;2023-03-13T03:43:50;3.27;;;2.90;;
68821;SDS011;55834;50.870;4.606;2023-03-13T03:46:16;3.93;;;3.63;;
68821;SDS011;55834;50.870;4.606;2023-03-13T03:48:41;5.07;;;2.67;;
68821;SDS011;55834;50.870;4.606;2023-03-13T03:51:07;6.43;;;2.70;;
68821;SDS011;55834;50.870;4.606;2023-03-13T03:53:32;2.60;;;2.17;;
68821;SDS011;55834;50.870;4.606;2023-03-13T03:55:58;4.17;;;2.33;;
68821;SDS011;55834;50.870;4.606;2023-03-13T03:58:23;4.63;;;2.17;;
68821;SDS011;55834;50.870;4.606;2023-03-13T04:00:49;3.75;;;2.20;;
68821;SDS011;55834;50.870;4.606;2023-03-13T04:03:14;4.27;;;2.60;;
68821;SDS011;55834;50.870;4.606;2023-03-13T04:05:41;5.32;;;3.42;;
68821;SDS011;55834;50.870;4.606;2023-03-13T04:08:07;4.25;;;2.38;;
68821;SDS011;55834;50.870;4.606;2023-03-13T04:10:33;4.07;;;3.00;;
68821;SDS011;55834;50.870;4.606;2023-03-13T04:12:59;3.85;;;2.70;;
68821;SDS011;55834;50.870;4.606;2023-03-13T04:15:24;2.67;;;1.93;;
68821;SDS011;55834;50.870;4.606;2023-03-13T04:17:50;3.47;;;2.40;;
68821;SDS011;55834;50.870;4.606;2023-03-13T04:20:15;4.33;;;2.87;;
68821;SDS011;55834;50.870;4.606;2023-03-13T04:22:41;2.47;;;2.03;;
68821;SDS011;55834;50.870;4.606;2023-03-13T04:25:06;3.38;;;2.10;;
68821;SDS011;55834;50.870;4.606;2023-03-13T04:27:33;3.67;;;2.42;;
68821;SDS011;55834;50.870;4.606;2023-03-13T04:29:58;5.07;;;1.90;;
68821;SDS011;55834;50.870;4.606;2023-03-13T04:32:24;2.35;;;1.60;;
68821;SDS011;55834;50.870;4.606;2023-03-13T04:34:50;4.18;;;1.80;;
68821;SDS011;55834;50.870;4.606;2023-03-13T04:37:15;3.87;;;1.83;;
68821;SDS011;55834;50.870;4.606;2023-03-13T04:39:41;3.77;;;2.27;;
68821;SDS011;55834;50.870;4.606;2023-03-13T04:42:06;2.27;;;1.70;;
68821;SDS011;55834;50.870;4.606;2023-03-13T04:44:34;2.25;;;1.30;;
68821;SDS011;55834;50.870;4.606;2023-03-13T04:46:59;3.73;;;2.10;;
68821;SDS011;55834;50.870;4.606;2023-03-13T04:49:24;3.30;;;2.27;;
68821;SDS011;55834;50.870;4.606;2023-03-13T04:51:50;3.77;;;1.63;;
68821;SDS011;55834;50.870;4.606;2023-03-13T04:54:15;3.37;;;1.87;;
68821;SDS011;55834;50.870;4.606;2023-03-13T04:56:41;3.17;;;2.00;;
68821;SDS011;55834;50.870;4.606;2023-03-13T04:59:06;7.93;;;1.63;;
68821;SDS011;55834;50.870;4.606;2023-03-13T05:01:31;7.57;;;1.93;;
68821;SDS011;55834;50.870;4.606;2023-03-13T05:03:57;2.47;;;1.43;;
68821;SDS011;55834;50.870;4.606;2023-03-13T05:06:22;4.90;;;2.10;;
68821;SDS011;55834;50.870;4.606;2023-03-13T05:08:47;4.30;;;1.60;;
68821;SDS011;55834;50.870;4.606;2023-03-13T05:11:13;3.17;;;1.97;;
68821;SDS011;55834;50.870;4.606;2023-03-13T05:13:38;5.57;;;2.47;;
68821;SDS011;55834;50.870;4.606;2023-03-13T05:16:04;4.72;;;2.20;;
68821;SDS011;55834;50.870;4.606;2023-03-13T05:18:29;2.35;;;1.50;;
68821;SDS011;55834;50.870;4.606;2023-03-13T05:20:55;5.05;;;2.40;;
68821;SDS011;55834;50.870;4.606;2023-03-13T05:23:21;5.10;;;2.30;;
68821;SDS011;55834;50.870;4.606;2023-03-13T05:25:47;5.20;;;1.77;;
68821;SDS011;55834;50.870;4.606;2023-03-13T05:28:12;5.03;;;1.70;;
68821;SDS011;55834;50.870;4.606;2023-03-13T05:30:37;3.50;;;2.17;;
68821;SDS011;55834;50.870;4.606;2023-03-13T05:33:03;4.93;;;2.40;;
68821;SDS011;55834;50.870;4.606;2023-03-13T05:35:28;6.93;;;1.60;;
68821;SDS011;55834;50.870;4.606;2023-03-13T05:37:53;6.07;;;2.27;;
68821;SDS011;55834;50.870;4.606;2023-03-13T05:40:19;3.38;;;2.35;;
68821;SDS011;55834;50.870;4.606;2023-03-13T05:42:44;5.87;;;1.90;;
68821;SDS011;55834;50.870;4.606;2023-03-13T05:45:10;3.65;;;1.98;;
68821;SDS011;55834;50.870;4.606;2023-03-13T05:47:35;3.95;;;2.20;;
68821;SDS011;55834;50.870;4.606;2023-03-13T05:50:02;2.58;;;1.65;;
68821;SDS011;55834;50.870;4.606;2023-03-13T05:52:28;7.18;;;2.45;;
68821;SDS011;55834;50.870;4.606;2023-03-13T05:54:54;5.30;;;2.00;;
68821;SDS011;55834;50.870;4.606;2023-03-13T05:57:19;5.33;;;1.80;;
68821;SDS011;55834;50.870;4.606;2023-03-13T05:59:45;4.37;;;1.23;;
68821;SDS011;55834;50.870;4.606;2023-03-13T06:02:10;2.33;;;1.47;;
68821;SDS011;55834;50.870;4.606;2023-03-13T06:04:35;5.15;;;2.22;;
68821;SDS011;55834;50.870;4.606;2023-03-13T06:07:01;4.27;;;2.07;;
68821;SDS011;55834;50.870;4.606;2023-03-13T06:09:26;2.97;;;1.67;;
68821;SDS011;55834;50.870;4.606;2023-03-13T06:11:51;2.13;;;1.70;;
68821;SDS011;55834;50.870;4.606;2023-03-13T06:14:17;5.22;;;1.52;;
68821;SDS011;55834;50.870;4.606;2023-03-13T06:16:42;7.03;;;2.10;;
68821;SDS011;55834;50.870;4.606;2023-03-13T06:19:07;3.65;;;1.65;;
68821;SDS011;55834;50.870;4.606;2023-03-13T06:21:33;3.17;;;1.65;;
68821;SDS011;55834;50.870;4.606;2023-03-13T06:23:59;5.28;;;1.48;;
68821;SDS011;55834;50.870;4.606;2023-03-13T06:26:24;7.47;;;1.87;;
68821;SDS011;55834;50.870;4.606;2023-03-13T06:28:50;7.18;;;2.15;;
68821;SDS011;55834;50.870;4.606;2023-03-13T06:31:16;9.45;;;2.88;;
68821;SDS011;55834;50.870;4.606;2023-03-13T06:33:42;7.40;;;2.72;;
68821;SDS011;55834;50.870;4.606;2023-03-13T06:36:08;5.13;;;1.70;;
68821;SDS011;55834;50.870;4.606;2023-03-13T06:38:34;4.88;;;2.00;;
68821;SDS011;55834;50.870;4.606;2023-03-13T06:40:59;3.42;;;2.08;;
68821;SDS011;55834;50.870;4.606;2023-03-13T06:43:25;6.00;;;3.00;;
68821;SDS011;55834;50.870;4.606;2023-03-13T06:45:51;6.78;;;1.60;;
68821;SDS011;55834;50.870;4.606;2023-03-13T06:48:16;3.70;;;1.47;;
68821;SDS011;55834;50.870;4.606;2023-03-13T06:50:42;3.17;;;1.88;;
68821;SDS011;55834;50.870;4.606;2023-03-13T06:53:14;5.65;;;1.60;;
68821;SDS011;55834;50.870;4.606;2023-03-13T06:55:44;7.40;;;1.92;;
68821;SDS011;55834;50.870;4.606;2023-03-13T06:58:10;7.10;;;2.58;;
68821;SDS011;55834;50.870;4.606;2023-03-13T07:00:36;5.28;;;1.40;;
68821;SDS011;55834;50.870;4.606;2023-03-13T07:03:03;5.18;;;1.90;;
68821;SDS011;55834;50.870;4.606;2023-03-13T07:05:29;4.97;;;2.20;;
68821;SDS011;55834;50.870;4.606;2023-03-13T07:07:54;6.40;;;2.37;;
68821;SDS011;55834;50.870;4.606;2023-03-13T07:10:20;3.17;;;1.40;;
68821;SDS011;55834;50.870;4.606;2023-03-13T07:12:45;7.67;;;2.13;;
68821;SDS011;55834;50.870;4.606;2023-03-13T07:15:10;5.10;;;1.40;;
68821;SDS011;55834;50.870;4.606;2023-03-13T07:17:36;5.53;;;1.53;;
68821;SDS011;55834;50.870;4.606;2023-03-13T07:20:02;3.85;;;1.75;;
68821;SDS011;55834;50.870;4.606;2023-03-13T07:22:34;7.55;;;2.22;;
68821;SDS011;55834;50.870;4.606;2023-03-13T07:25:00;8.23;;;1.85;;
68821;SDS011;55834;50.870;4.606;2023-03-13T07:27:25;9.70;;;2.40;;
68821;SDS011;55834;50.870;4.606;2023-03-13T07:29:50;5.23;;;2.00;;
68821;SDS011;55834;50.870;4.606;2023-03-13T07:32:16;4.93;;;1.77;;
68821;SDS011;55834;50.870;4.606;2023-03-13T07:34:41;3.63;;;1.87;;
68821;SDS011;55834;50.870;4.606;2023-03-13T07:39:34;3.65;;;2.15;;
68821;SDS011;55834;50.870;4.606;2023-03-13T07:41:59;2.23;;;1.70;;
68821;SDS011;55834;50.870;4.606;2023-03-13T07:44:24;8.23;;;2.03;;
68821;SDS011;55834;50.870;4.606;2023-03-13T07:46:50;4.27;;;2.03;;
68821;SDS011;55834;50.870;4.606;2023-03-13T07:49:15;5.22;;;2.38;;
68821;SDS011;55834;50.870;4.606;2023-03-13T07:51:40;3.67;;;2.07;;
68821;SDS011;55834;50.870;4.606;2023-03-13T07:54:06;6.60;;;2.10;;
68821;SDS011;55834;50.870;4.606;2023-03-13T07:56:31;4.53;;;2.23;;
68821;SDS011;55834;50.870;4.606;2023-03-13T07:58:56;4.57;;;1.70;;
68821;SDS011;55834;50.870;4.606;2023-03-13T08:01:23;4.47;;;1.33;;
68821;SDS011;55834;50.870;4.606;2023-03-13T08:03:50;4.75;;;1.50;;
68821;SDS011;55834;50.870;4.606;2023-03-13T08:06:20;6.38;;;2.58;;
68821;SDS011;55834;50.870;4.606;2023-03-13T08:08:47;4.13;;;1.65;;
68821;SDS011;55834;50.870;4.606;2023-03-13T08:11:17;5.10;;;1.95;;
68821;SDS011;55834;50.870;4.606;2023-03-13T08:13:44;4.38;;;1.88;;
68821;SDS011;55834;50.870;4.606;2023-03-13T08:16:14;3.72;;;1.40;;
68821;SDS011;55834;50.870;4.606;2023-03-13T08:18:43;4.95;;;2.50;;
68821;SDS011;55834;50.870;4.606;2023-03-13T08:21:10;4.85;;;2.38;;
68821;SDS011;55834;50.870;4.606;2023-03-13T08:23:37;5.22;;;1.35;;
68821;SDS011;55834;50.870;4.606;2023-03-13T08:28:33;3.42;;;1.65;;
68821;SDS011;55834;50.870;4.606;2023-03-13T08:31:13;3.70;;;1.50;;
68821;SDS011;55834;50.870;4.606;2023-03-13T08:33:41;2.40;;;1.50;;
68821;SDS011;55834;50.870;4.606;2023-03-13T08:36:11;3.35;;;2.17;;
68821;SDS011;55834;50.870;4.606;2023-03-13T08:38:37;3.63;;;1.65;;
68821;SDS011;55834;50.870;4.606;2023-03-13T08:41:02;2.63;;;1.75;;
68821;SDS011;55834;50.870;4.606;2023-03-13T08:43:28;4.05;;;1.95;;
68821;SDS011;55834;50.870;4.606;2023-03-13T08:45:54;2.70;;;1.67;;
68821;SDS011;55834;50.870;4.606;2023-03-13T08:48:20;3.53;;;1.92;;
68821;SDS011;55834;50.870;4.606;2023-03-13T08:50:46;3.58;;;1.92;;
68821;SDS011;55834;50.870;4.606;2023-03-13T08:53:11;6.70;;;1.50;;
68821;SDS011;55834;50.870;4.606;2023-03-13T08:55:36;3.00;;;1.53;;
68821;SDS011;55834;50.870;4.606;2023-03-13T08:58:02;8.57;;;1.57;;
68821;SDS011;55834;50.870;4.606;2023-03-13T09:00:27;3.40;;;1.40;;
68821;SDS011;55834;50.870;4.606;2023-03-13T09:02:52;3.67;;;1.53;;
68821;SDS011;55834;50.870;4.606;2023-03-13T09:05:18;2.80;;;1.33;;
68821;SDS011;55834;50.870;4.606;2023-03-13T09:07:43;5.60;;;1.87;;
68821;SDS011;55834;50.870;4.606;2023-03-13T09:10:09;2.40;;;1.37;;
68821;SDS011;55834;50.870;4.606;2023-03-13T09:12:34;5.35;;;1.48;;
68821;SDS011;55834;50.870;4.606;2023-03-13T09:15:00;2.20;;;1.00;;
68821;SDS011;55834;50.870;4.606;2023-03-13T09:17:25;1.63;;;1.00;;
68821;SDS011;55834;50.870;4.606;2023-03-13T09:19:50;2.60;;;1.13;;
68821;SDS011;55834;50.870;4.606;2023-03-13T09:22:15;3.27;;;1.40;;
68821;SDS011;55834;50.870;4.606;2023-03-13T09:24:41;4.40;;;1.67;;
68821;SDS011;55834;50.870;4.606;2023-03-13T09:27:07;1.67;;;1.17;;
68821;SDS011;55834;50.870;4.606;2023-03-13T09:29:32;2.03;;;1.27;;
68821;SDS011;55834;50.870;4.606;2023-03-13T09:32:01;1.90;;;1.35;;
68821;SDS011;55834;50.870;4.606;2023-03-13T09:34:27;1.25;;;0.77;;
68821;SDS011;55834;50.870;4.606;2023-03-13T09:36:53;3.10;;;1.35;;
68821;SDS011;55834;50.870;4.606;2023-03-13T09:39:18;1.73;;;1.30;;
68821;SDS011;55834;50.870;4.606;2023-03-13T09:41:52;1.93;;;1.10;;
68821;SDS011;55834;50.870;4.606;2023-03-13T09:44:29;3.53;;;1.75;;
68821;SDS011;55834;50.870;4.606;2023-03-13T09:47:05;2.63;;;1.10;;
68821;SDS011;55834;50.870;4.606;2023-03-13T09:49:41;2.65;;;1.10;;
68821;SDS011;55834;50.870;4.606;2023-03-13T09:52:14;3.17;;;1.08;;
68821;SDS011;55834;50.870;4.606;2023-03-13T09:57:24;2.42;;;1.30;;
68821;SDS011;55834;50.870;4.606;2023-03-13T09:59:58;1.95;;;1.17;;
68821;SDS011;55834;50.870;4.606;2023-03-13T10:02:28;2.72;;;1.00;;
68821;SDS011;55834;50.870;4.606;2023-03-13T10:05:20;4.55;;;1.17;;
68821;SDS011;55834;50.870;4.606;2023-03-13T10:07:48;1.58;;;1.00;;
68821;SDS011;55834;50.870;4.606;2023-03-13T10:12:46;2.25;;;1.17;;
68821;SDS011;55834;50.870;4.606;2023-03-13T10:17:50;1.83;;;1.00;;
68821;SDS011;55834;50.870;4.606;2023-03-13T10:20:30;11.07;;;1.93;;
68821;SDS011;55834;50.870;4.606;2023-03-13T10:23:06;2.25;;;1.08;;
68821;SDS011;55834;50.870;4.606;2023-03-13T10:25:40;0.70;;;0.70;;
68821;SDS011;55834;50.870;4.606;2023-03-13T10:28:09;2.97;;;1.70;;
68821;SDS011;55834;50.870;4.606;2023-03-13T10:30:36;2.78;;;1.48;;
68821;SDS011;55834;50.870;4.606;2023-03-13T10:35:38;1.95;;;0.90;;
68821;SDS011;55834;50.870;4.606;2023-03-13T10:38:13;2.40;;;0.88;;
68821;SDS011;55834;50.870;4.606;2023-03-13T10:40:41;1.95;;;0.98;;
68821;SDS011;55834;50.870;4.606;2023-03-13T10:43:17;2.07;;;1.00;;
68821;SDS011;55834;50.870;4.606;2023-03-13T10:45:44;2.78;;;0.95;;
68821;SDS011;55834;50.870;4.606;2023-03-13T10:48:14;1.38;;;1.27;;
68821;SDS011;55834;50.870;4.606;2023-03-13T10:50:44;4.82;;;0.93;;
68821;SDS011;55834;50.870;4.606;2023-03-13T10:53:21;1.92;;;1.15;;
68821;SDS011;55834;50.870;4.606;2023-03-13T10:58:46;1.90;;;0.95;;
68821;SDS011;55834;50.870;4.606;2023-03-13T11:01:25;3.03;;;1.00;;
68821;SDS011;55834;50.870;4.606;2023-03-13T11:03:54;3.10;;;1.00;;
68821;SDS011;55834;50.870;4.606;2023-03-13T11:08:57;2.45;;;1.25;;
68821;SDS011;55834;50.870;4.606;2023-03-13T11:11:46;1.75;;;0.50;;
68821;SDS011;55834;50.870;4.606;2023-03-13T11:14:15;2.63;;;0.70;;
68821;SDS011;55834;50.870;4.606;2023-03-13T11:19:28;3.08;;;0.60;;
68821;SDS011;55834;50.870;4.606;2023-03-13T11:25:20;3.03;;;1.38;;
68821;SDS011;55834;50.870;4.606;2023-03-13T11:33:27;1.77;;;0.70;;
68821;SDS011;55834;50.870;4.606;2023-03-13T11:38:41;1.55;;;0.90;;
68821;SDS011;55834;50.870;4.606;2023-03-13T11:49:50;3.50;;;1.75;;
68821;SDS011;55834;50.870;4.606;2023-03-13T11:55:17;1.52;;;0.70;;
68821;SDS011;55834;50.870;4.606;2023-03-13T11:58:34;1.02;;;0.73;;
68821;SDS011;55834;50.870;4.606;2023-03-13T12:01:07;1.67;;;0.80;;
68821;SDS011;55834;50.870;4.606;2023-03-13T12:09:19;1.02;;;0.70;;
68821;SDS011;55834;50.870;4.606;2023-03-13T12:12:00;1.95;;;0.90;;
68821;SDS011;55834;50.870;4.606;2023-03-13T12:17:10;1.17;;;0.65;;
68821;SDS011;55834;50.870;4.606;2023-03-13T12:19:45;1.85;;;0.82;;
68821;SDS011;55834;50.870;4.606;2023-03-13T12:25:32;1.42;;;0.82;;
68821;SDS011;55834;50.870;4.606;2023-03-13T12:31:03;6.38;;;1.35;;
68821;SDS011;55834;50.870;4.606;2023-03-13T12:33:45;1.67;;;0.88;;
68821;SDS011;55834;50.870;4.606;2023-03-13T12:36:32;1.55;;;0.68;;
68821;SDS011;55834;50.870;4.606;2023-03-13T12:39:10;1.30;;;0.88;;
68821;SDS011;55834;50.870;4.606;2023-03-13T12:44:31;1.00;;;0.80;;
68821;SDS011;55834;50.870;4.606;2023-03-13T13:00:55;2.90;;;1.48;;
68821;SDS011;55834;50.870;4.606;2023-03-13T13:03:29;0.98;;;0.50;;
68821;SDS011;55834;50.870;4.606;2023-03-13T13:06:10;2.15;;;0.60;;
68821;SDS011;55834;50.870;4.606;2023-03-13T13:17:10;4.63;;;0.73;;
68821;SDS011;55834;50.870;4.606;2023-03-13T13:19:49;2.33;;;0.85;;
68821;SDS011;55834;50.870;4.606;2023-03-13T13:30:28;1.33;;;1.00;;
68821;SDS011;55834;50.870;4.606;2023-03-13T13:32:51;4.65;;;0.98;;
68821;SDS011;55834;50.870;4.606;2023-03-13T13:35:25;1.30;;;1.10;;
68821;SDS011;55834;50.870;4.606;2023-03-13T13:40:56;2.03;;;1.05;;
68821;SDS011;55834;50.870;4.606;2023-03-13T13:43:29;2.67;;;1.13;;
68821;SDS011;55834;50.870;4.606;2023-03-13T13:56:24;3.42;;;0.88;;
68821;SDS011;55834;50.870;4.606;2023-03-13T14:04:28;0.28;;;0.28;;
68821;SDS011;55834;50.870;4.606;2023-03-13T14:07:00;4.90;;;1.70;;
68821;SDS011;55834;50.870;4.606;2023-03-13T14:09:35;4.53;;;0.55;;
68821;SDS011;55834;50.870;4.606;2023-03-13T14:12:25;3.22;;;0.60;;
68821;SDS011;55834;50.870;4.606;2023-03-13T14:15:52;3.28;;;1.23;;
68821;SDS011;55834;50.870;4.606;2023-03-13T14:17:54;4.93;;;0.68;;
68821;SDS011;55834;50.870;4.606;2023-03-13T14:20:34;1.33;;;0.57;;
68821;SDS011;55834;50.870;4.606;2023-03-13T14:23:05;1.30;;;1.00;;
68821;SDS011;55834;50.870;4.606;2023-03-13T14:28:15;3.42;;;0.88;;
68821;SDS011;55834;50.870;4.606;2023-03-13T14:30:47;1.88;;;0.82;;
68821;SDS011;55834;50.870;4.606;2023-03-13T14:33:14;1.33;;;0.68;;
68821;SDS011;55834;50.870;4.606;2023-03-13T14:35:40;0.60;;;0.28;;
68821;SDS011;55834;50.870;4.606;2023-03-13T14:38:06;1.17;;;0.75;;
68821;SDS011;55834;50.870;4.606;2023-03-13T14:40:32;3.67;;;1.20;;
68821;SDS011;55834;50.870;4.606;2023-03-13T14:43:01;1.73;;;0.60;;
68821;SDS011;55834;50.870;4.606;2023-03-13T14:48:01;1.75;;;0.80;;
68821;SDS011;55834;50.870;4.606;2023-03-13T14:50:28;2.75;;;1.30;;
68821;SDS011;55834;50.870;4.606;2023-03-13T14:52:56;1.88;;;0.85;;
68821;SDS011;55834;50.870;4.606;2023-03-13T14:55:27;1.35;;;1.10;;
68821;SDS011;55834;50.870;4.606;2023-03-13T14:57:56;3.00;;;0.93;;
68821;SDS011;55834;50.870;4.606;2023-03-13T15:00:39;3.30;;;0.90;;
68821;SDS011;55834;50.870;4.606;2023-03-13T15:05:45;3.88;;;0.82;;
68821;SDS011;55834;50.870;4.606;2023-03-13T15:08:15;2.30;;;1.20;;
68821;SDS011;55834;50.870;4.606;2023-03-13T15:10:42;4.90;;;1.73;;
68821;SDS011;55834;50.870;4.606;2023-03-13T15:15:53;4.15;;;1.23;;
68821;SDS011;55834;50.870;4.606;2023-03-13T15:18:19;2.58;;;0.82;;
68821;SDS011;55834;50.870;4.606;2023-03-13T15:20:53;1.80;;;0.93;;
68821;SDS011;55834;50.870;4.606;2023-03-13T15:23:22;1.77;;;1.02;;
68821;SDS011;55834;50.870;4.606;2023-03-13T15:25:48;2.47;;;1.17;;
68821;SDS011;55834;50.870;4.606;2023-03-13T15:28:18;2.25;;;0.50;;
68821;SDS011;55834;50.870;4.606;2023-03-13T15:30:46;3.92;;;1.05;;
68821;SDS011;55834;50.870;4.606;2023-03-13T15:33:17;8.45;;;1.52;;
68821;SDS011;55834;50.870;4.606;2023-03-13T15:35:47;3.13;;;0.88;;
68821;SDS011;55834;50.870;4.606;2023-03-13T15:40:46;3.00;;;1.13;;
68821;SDS011;55834;50.870;4.606;2023-03-13T15:43:13;7.30;;;1.30;;
68821;SDS011;55834;50.870;4.606;2023-03-13T15:45:40;3.83;;;0.55;;
68821;SDS011;55834;50.870;4.606;2023-03-13T15:48:28;3.90;;;1.30;;
68821;SDS011;55834;50.870;4.606;2023-03-13T15:51:00;2.35;;;1.00;;
68821;SDS011;55834;50.870;4.606;2023-03-13T15:53:28;2.22;;;0.88;;
68821;SDS011;55834;50.870;4.606;2023-03-13T15:55:56;2.45;;;1.08;;
68821;SDS011;55834;50.870;4.606;2023-03-13T15:58:23;4.85;;;0.95;;
68821;SDS011;55834;50.870;4.606;2023-03-13T16:05:42;2.55;;;1.20;;
68821;SDS011;55834;50.870;4.606;2023-03-13T16:08:11;5.15;;;1.45;;
68821;SDS011;55834;50.870;4.606;2023-03-13T16:10:38;5.28;;;1.48;;
68821;SDS011;55834;50.870;4.606;2023-03-13T16:13:04;5.40;;;1.20;;
68821;SDS011;55834;50.870;4.606;2023-03-13T16:15:29;5.23;;;1.50;;
68821;SDS011;55834;50.870;4.606;2023-03-13T16:17:54;2.23;;;1.07;;
68821;SDS011;55834;50.870;4.606;2023-03-13T16:20:21;3.83;;;0.98;;
68821;SDS011;55834;50.870;4.606;2023-03-13T16:22:47;4.32;;;1.25;;
68821;SDS011;55834;50.870;4.606;2023-03-13T16:25:13;4.97;;;1.13;;
68821;SDS011;55834;50.870;4.606;2023-03-13T16:27:38;5.78;;;1.63;;
68821;SDS011;55834;50.870;4.606;2023-03-13T16:30:27;5.28;;;1.10;;
68821;SDS011;55834;50.870;4.606;2023-03-13T16:32:55;3.65;;;1.33;;
68821;SDS011;55834;50.870;4.606;2023-03-13T16:35:21;5.03;;;1.80;;
68821;SDS011;55834;50.870;4.606;2023-03-13T16:37:48;3.80;;;1.42;;
68821;SDS011;55834;50.870;4.606;2023-03-13T16:42:46;6.13;;;1.50;;
68821;SDS011;55834;50.870;4.606;2023-03-13T16:45:11;7.03;;;1.55;;
68821;SDS011;55834;50.870;4.606;2023-03-13T16:47:39;6.10;;;1.83;;
68821;SDS011;55834;50.870;4.606;2023-03-13T16:50:20;4.85;;;1.13;;
68821;SDS011;55834;50.870;4.606;2023-03-13T16:52:45;2.50;;;0.80;;
68821;SDS011;55834;50.870;4.606;2023-03-13T16:55:10;5.30;;;1.73;;
68821;SDS011;55834;50.870;4.606;2023-03-13T16:57:40;4.30;;;1.20;;
68821;SDS011;55834;50.870;4.606;2023-03-13T17:00:10;3.05;;;1.50;;
68821;SDS011;55834;50.870;4.606;2023-03-13T17:02:38;3.42;;;0.98;;
68821;SDS011;55834;50.870;4.606;2023-03-13T17:05:04;6.80;;;1.20;;
68821;SDS011;55834;50.870;4.606;2023-03-13T17:07:29;3.92;;;1.42;;
68821;SDS011;55834;50.870;4.606;2023-03-13T17:09:54;3.13;;;1.10;;
68821;SDS011;55834;50.870;4.606;2023-03-13T17:12:20;2.53;;;0.90;;